sensor_id;sensor_type;location;lat;lon;timestamp;pressure;altitude;pressure_sealevel;temperature
25985;BMP280;66753;53.848;10.658;2024-02-26T00:00:34;100364.88;;;3.42
25985;BMP280;66753;53.848;10.658;2024-02-26T00:15:37;100368.44;;;3.32
25985;BMP280;66753;53.848;10.658;2024-02-26T00:30:38;100361.16;;;3.16
25985;BMP280;66753;53.848;10.658;2024-02-26T00:45:40;100386.16;;;3.08
25985;BMP280;66753;53.848;10.658;2024-02-26T01:00:41;100386.00;;;3.18
25985;BMP280;66753;53.848;10.658;2024-02-26T01:15:43;100381.41;;;3.10
25985;BMP280;66753;53.848;10.658;2024-02-26T01:30:44;100397.69;;;3.07
25985;BMP280;66753;53.848;10.658;2024-02-26T01:45:46;100392.69;;;2.92
25985;BMP280;66753;53.848;10.658;2024-02-26T02:00:49;100383.88;;;2.70
25985;BMP280;66753;53.848;10.658;2024-02-26T02:15:50;100403.81;;;2.47
25985;BMP280;66753;53.848;10.658;2024-02-26T02:30:52;100391.00;;;2.27
25985;BMP280;66753;53.848;10.658;2024-02-26T02:45:55;100385.47;;;2.10
25985;BMP280;66753;53.848;10.658;2024-02-26T03:00:56;100380.13;;;1.97
25985;BMP280;66753;53.848;10.658;2024-02-26T03:16:05;100416.75;;;1.92
25985;BMP280;66753;53.848;10.658;2024-02-26T03:31:07;100409.84;;;1.82
25985;BMP280;66753;53.848;10.658;2024-02-26T03:46:08;100416.78;;;1.68
25985;BMP280;66753;53.848;10.658;2024-02-26T04:01:11;100424.13;;;1.61
25985;BMP280;66753;53.848;10.658;2024-02-26T04:16:12;100445.66;;;1.48
25985;BMP280;66753;53.848;10.658;2024-02-26T04:31:14;100457.78;;;1.34
25985;BMP280;66753;53.848;10.658;2024-02-26T04:46:15;100486.09;;;1.22
25985;BMP280;66753;53.848;10.658;2024-02-26T05:01:16;100516.59;;;1.26
25985;BMP280;66753;53.848;10.658;2024-02-26T05:16:18;100513.00;;;1.17
25985;BMP280;66753;53.848;10.658;2024-02-26T05:31:21;100516.97;;;1.05
25985;BMP280;66753;53.848;10.658;2024-02-26T05:46:22;100538.13;;;0.98
25985;BMP280;66753;53.848;10.658;2024-02-26T06:01:24;100567.03;;;1.07
25985;BMP280;66753;53.848;10.658;2024-02-26T06:16:26;100594.03;;;1.36
25985;BMP280;66753;53.848;10.658;2024-02-26T06:31:27;100615.34;;;1.53
25985;BMP280;66753;53.848;10.658;2024-02-26T06:46:29;100642.91;;;1.74
25985;BMP280;66753;53.848;10.658;2024-02-26T07:01:31;100671.50;;;2.28
25985;BMP280;66753;53.848;10.658;2024-02-26T07:16:32;100691.38;;;2.62
25985;BMP280;66753;53.848;10.658;2024-02-26T07:31:33;100704.41;;;2.91
25985;BMP280;66753;53.848;10.658;2024-02-26T07:46:37;100715.44;;;3.35
25985;BMP280;66753;53.848;10.658;2024-02-26T08:01:39;100744.47;;;3.81
25985;BMP280;66753;53.848;10.658;2024-02-26T08:16:42;100779.75;;;4.07
25985;BMP280;66753;53.848;10.658;2024-02-26T08:31:44;100825.84;;;4.63
25985;BMP280;66753;53.848;10.658;2024-02-26T08:46:47;100847.88;;;4.94
25985;BMP280;66753;53.848;10.658;2024-02-26T09:01:49;100847.94;;;5.08
25985;BMP280;66753;53.848;10.658;2024-02-26T09:16:51;100863.19;;;5.06
25985;BMP280;66753;53.848;10.658;2024-02-26T09:31:53;100895.28;;;5.35
25985;BMP280;66753;53.848;10.658;2024-02-26T09:46:55;100908.66;;;5.65
25985;BMP280;66753;53.848;10.658;2024-02-26T10:01:57;100922.94;;;6.49
25985;BMP280;66753;53.848;10.658;2024-02-26T10:17:00;100920.78;;;6.73
25985;BMP280;66753;53.848;10.658;2024-02-26T10:32:02;100930.34;;;6.69
25985;BMP280;66753;53.848;10.658;2024-02-26T10:47:05;100945.28;;;7.04
25985;BMP280;66753;53.848;10.658;2024-02-26T11:02:09;100959.44;;;7.39
25985;BMP280;66753;53.848;10.658;2024-02-26T11:17:13;100963.50;;;7.92
25985;BMP280;66753;53.848;10.658;2024-02-26T11:32:16;100956.72;;;8.00
25985;BMP280;66753;53.848;10.658;2024-02-26T11:47:23;100958.88;;;7.89
25985;BMP280;66753;53.848;10.658;2024-02-26T12:02:43;100966.66;;;7.55
25985;BMP280;66753;53.848;10.658;2024-02-26T12:17:49;100984.81;;;7.57
25985;BMP280;66753;53.848;10.658;2024-02-26T12:32:52;101000.94;;;7.55
25985;BMP280;66753;53.848;10.658;2024-02-26T12:47:58;101012.25;;;7.86
25985;BMP280;66753;53.848;10.658;2024-02-26T13:03:01;101035.28;;;7.64
25985;BMP280;66753;53.848;10.658;2024-02-26T13:18:14;101065.50;;;7.88
25985;BMP280;66753;53.848;10.658;2024-02-26T13:33:16;101057.50;;;8.10
25985;BMP280;66753;53.848;10.658;2024-02-26T13:48:18;101063.63;;;8.36
25985;BMP280;66753;53.848;10.658;2024-02-26T14:03:20;101066.28;;;8.45
25985;BMP280;66753;53.848;10.658;2024-02-26T14:18:23;101085.28;;;8.64
25985;BMP280;66753;53.848;10.658;2024-02-26T14:33:24;101086.84;;;8.73
25985;BMP280;66753;53.848;10.658;2024-02-26T14:48:27;101096.88;;;8.37
25985;BMP280;66753;53.848;10.658;2024-02-26T15:03:30;101108.66;;;7.92
25985;BMP280;66753;53.848;10.658;2024-02-26T15:18:32;101132.53;;;7.57
25985;BMP280;66753;53.848;10.658;2024-02-26T15:33:35;101155.34;;;7.39
25985;BMP280;66753;53.848;10.658;2024-02-26T15:48:37;101173.47;;;7.32
25985;BMP280;66753;53.848;10.658;2024-02-26T16:03:39;101180.09;;;6.94
25985;BMP280;66753;53.848;10.658;2024-02-26T16:18:41;101196.03;;;6.44
25985;BMP280;66753;53.848;10.658;2024-02-26T16:33:42;101222.59;;;6.15
25985;BMP280;66753;53.848;10.658;2024-02-26T16:48:44;101240.41;;;6.05
25985;BMP280;66753;53.848;10.658;2024-02-26T17:03:46;101268.75;;;5.94
25985;BMP280;66753;53.848;10.658;2024-02-26T17:18:50;101275.47;;;5.82
25985;BMP280;66753;53.848;10.658;2024-02-26T17:33:51;101300.72;;;5.64
25985;BMP280;66753;53.848;10.658;2024-02-26T17:48:54;101311.41;;;5.49
25985;BMP280;66753;53.848;10.658;2024-02-26T18:03:56;101337.47;;;5.45
25985;BMP280;66753;53.848;10.658;2024-02-26T18:18:58;101352.00;;;5.38
25985;BMP280;66753;53.848;10.658;2024-02-26T18:34:01;101367.66;;;5.24
25985;BMP280;66753;53.848;10.658;2024-02-26T18:49:06;101362.94;;;5.21
25985;BMP280;66753;53.848;10.658;2024-02-26T19:04:07;101390.16;;;5.07
25985;BMP280;66753;53.848;10.658;2024-02-26T19:19:10;101417.59;;;4.96
25985;BMP280;66753;53.848;10.658;2024-02-26T19:34:12;101432.91;;;4.84
25985;BMP280;66753;53.848;10.658;2024-02-26T19:49:14;101444.00;;;4.71
25985;BMP280;66753;53.848;10.658;2024-02-26T20:04:16;101475.00;;;4.69
25985;BMP280;66753;53.848;10.658;2024-02-26T20:19:18;101482.13;;;4.63
25985;BMP280;66753;53.848;10.658;2024-02-26T20:34:20;101522.88;;;4.56
25985;BMP280;66753;53.848;10.658;2024-02-26T20:49:22;101551.72;;;4.61
25985;BMP280;66753;53.848;10.658;2024-02-26T21:04:24;101558.97;;;4.79
25985;BMP280;66753;53.848;10.658;2024-02-26T21:19:26;101583.09;;;4.91
25985;BMP280;66753;53.848;10.658;2024-02-26T21:34:29;101598.22;;;5.04
25985;BMP280;66753;53.848;10.658;2024-02-26T21:49:30;101610.31;;;5.10
25985;BMP280;66753;53.848;10.658;2024-02-26T22:04:32;101629.94;;;5.22
25985;BMP280;66753;53.848;10.658;2024-02-26T22:19:35;101651.72;;;5.28
25985;BMP280;66753;53.848;10.658;2024-02-26T22:34:37;101643.00;;;5.37
25985;BMP280;66753;53.848;10.658;2024-02-26T22:49:39;101650.59;;;5.39
25985;BMP280;66753;53.848;10.658;2024-02-26T23:04:41;101648.78;;;5.39
25985;BMP280;66753;53.848;10.658;2024-02-26T23:19:43;101659.06;;;5.36
25985;BMP280;66753;53.848;10.658;2024-02-26T23:34:45;101663.31;;;5.27
25985;BMP280;66753;53.848;10.658;2024-02-26T23:49:47;101655.75;;;5.10
